Victory — ODVS — position and weather

sailwx.info

Track history (hours):
 
Tides and Currents Weather Stations Pressure Air Temp Water Temp Dewpoint Dewpoint Depression Visibility Wind Speed Wind Dir Waves Ship Positions

Victory

Last reported at 2018-Jun-23 08:06 UTC. Time now 2018-Jun-24 12:38 UTC.
Position N 30°08' W 013°47'.

Length 120 m; draft 7 m.

Type: Cargo ship. MMSI: 450548000.

Date/timePositionNaut miles runAvg speedWind from/ knotsBaromVisibWave heightAir tempDewpointWater temp
2018-Jun-23 08:06N 30°08' W 013°47'56 9.6
2018-Jun-23 02:16N 29°29' W 014°34'6 9.7
2018-Jun-23 01:42N 29°26' W 014°39'2 9.8
2018-Jun-23 01:28N 29°24' W 014°41'5 9.6
2018-Jun-23 00:54N 29°20' W 014°46'7 9.7
2018-Jun-23 00:10N 29°16' W 014°52'4 9.7
2018-Jun-22 23:47N 29°13' W 014°55'3 9.8
2018-Jun-22 23:30N 29°11' W 014°57'5 9.7
2018-Jun-22 23:00N 29°08' W 015°01'5 9.6
2018-Jun-22 22:28N 29°04' W 015°05'5 9.4
2018-Jun-22 21:57N 29°01' W 015°09'5 9.3
2018-Jun-22 21:26N 28°58' W 015°13'4 9.4
2018-Jun-22 21:00N 28°55' W 015°17'5 9.5
2018-Jun-22 20:29N 28°51' W 015°21'5 9.6
2018-Jun-22 20:00N 28°48' W 015°25'5 9.4
2018-Jun-22 19:30N 28°45' W 015°29'5 9.3
2018-Jun-22 19:00N 28°42' W 015°33'5 9.6
2018-Jun-22 18:30N 28°39' W 015°37'5 9.6
2018-Jun-22 18:00N 28°35' W 015°40'5 9.5
2018-Jun-22 17:29N 28°32' W 015°44'5 9.3
2018-Jun-22 17:00N 28°28' W 015°48'5 9.1
2018-Jun-22 16:29N 28°25' W 015°51'4 8.9
2018-Jun-22 16:00N 28°21' W 015°54'5 8.8
2018-Jun-22 15:28N 28°18' W 015°57'6 8.7
2018-Jun-22 14:50N 28°13' W 016°01'3 9.0
2018-Jun-22 14:30N 28°11' W 016°04'25 9.1
2018-Jun-22 11:42N 27°52' W 016°22'2 8.9
2018-Jun-22 11:29N 27°50' W 016°24'8 8.9
2018-Jun-22 10:37N 27°43' W 016°28'3 8.9
2018-Jun-22 10:15N 27°41' W 016°30'  
Track history (hours):
 
Tides and Currents Weather Stations Pressure Air Temp Water Temp Dewpoint Dewpoint Depression Visibility Wind Speed Wind Dir Waves Ship Positions

Victory

Last reported at 2018-Jun-23 08:06 UTC. Time now 2018-Jun-24 12:38 UTC.
Position N 30°08' W 013°47'.

Length 120 m; draft 7 m.

Type: Cargo ship. MMSI: 450548000.

Date/timePositionNaut miles runAvg speedWind from/ knotsBaromVisibWave heightAir tempDewpointWater temp
2018-Jun-23 08:06N 30°08' W 013°47'56 9.6
2018-Jun-23 02:16N 29°29' W 014°34'6 9.7
2018-Jun-23 01:42N 29°26' W 014°39'2 9.8
2018-Jun-23 01:28N 29°24' W 014°41'5 9.6
2018-Jun-23 00:54N 29°20' W 014°46'7 9.7
2018-Jun-23 00:10N 29°16' W 014°52'4 9.7
2018-Jun-22 23:47N 29°13' W 014°55'3 9.8
2018-Jun-22 23:30N 29°11' W 014°57'5 9.7
2018-Jun-22 23:00N 29°08' W 015°01'5 9.6
2018-Jun-22 22:28N 29°04' W 015°05'5 9.4
2018-Jun-22 21:57N 29°01' W 015°09'5 9.3
2018-Jun-22 21:26N 28°58' W 015°13'4 9.4
2018-Jun-22 21:00N 28°55' W 015°17'5 9.5
2018-Jun-22 20:29N 28°51' W 015°21'5 9.6
2018-Jun-22 20:00N 28°48' W 015°25'5 9.4
2018-Jun-22 19:30N 28°45' W 015°29'5 9.3
2018-Jun-22 19:00N 28°42' W 015°33'5 9.6
2018-Jun-22 18:30N 28°39' W 015°37'5 9.6
2018-Jun-22 18:00N 28°35' W 015°40'5 9.5
2018-Jun-22 17:29N 28°32' W 015°44'5 9.3
2018-Jun-22 17:00N 28°28' W 015°48'5 9.1
2018-Jun-22 16:29N 28°25' W 015°51'4 8.9
2018-Jun-22 16:00N 28°21' W 015°54'5 8.8
2018-Jun-22 15:28N 28°18' W 015°57'6 8.7
2018-Jun-22 14:50N 28°13' W 016°01'3 9.0
2018-Jun-22 14:30N 28°11' W 016°04'25 9.1
2018-Jun-22 11:42N 27°52' W 016°22'2 8.9
2018-Jun-22 11:29N 27°50' W 016°24'8 8.9
2018-Jun-22 10:37N 27°43' W 016°28'3 8.9
2018-Jun-22 10:15N 27°41' W 016°30'  

Dump ship's entire track history